Aérodrome :
LOGIN :

S'inscrire | Disclaimer

   EN    FR    IT 

 










Légende :    VFR   VFR Marginal   IFR   IFR Intensif   IFR Très Intensif
Visi : 
Plafond : 
>= 8 km
>= 3000ft
5 à 8 km
1000 à 3000 ft
1500m à 5 km
500 à 1000 ft
800 à 1500m
200 à 500 ft
< 800m
< 200 ft
Symboles :   Orages  Brouillard  Fortes neiges  Fortes précipitations  Vent > 20 kt
SIGMETs :   Divers  Orages  Givrage  Turbulence  Onde Orograph.  Cendres Volcan.







- Altitude de l'aérodrome : 157 ft
- Code IATA : LIL
- Voir les cartes d'approche


LFQQ - Lille Lesquin

DERNIER METAR :
  • 140800Z AUTO 22016KT 9999 FEW015/// BKN049/// BKN120/// ///TCU 04/02 Q0995 TEMPO 25020G35KT 3000 SHRA BKN007 BKN013CB

METARs EXPIRÉS :
  • 140730Z AUTO 21015G26KT 9999 4000 RA FEW018/// SCT025/// BKN032/// ///TCU 05/02 Q0995 TEMPO 3000 SHRA BKN007 BKN013CB
  • 140700Z AUTO 24013KT 9999 -RA SCT026/// BKN036/// BKN049/// ///TCU 06/02 Q0995 TEMPO 25020G35KT 3000 SHRA BKN007 BKN013CB
  • 140630Z AUTO 22011KT 9999 SCT036/// BKN048/// BKN110/// ///CB 05/02 Q0995 TEMPO 25020G35KT 3000 SHRA BKN007 BKN013CB
  • 140600Z AUTO 24010KT 9999 FEW043/// SCT100/// BKN120/// ///CB 05/01 Q0995 TEMPO 25020G35KT 3000 SHRA BKN007 BKN013CB
  • 140530Z AUTO 24011KT 9999 FEW036 SCT048 BKN056 05/01 Q0995 TEMPO 24020G35KT 3000 SHRA BKN007 BKN013CB

TAF TAF LFQQ
Valide du 14 à 06h jusqu'au 15 à 12h UTC


140500Z 1406/1512 25013KT 9999 BKN030
TEMPO 1406/1413 25020G35KT
TEMPO 1406/1421 3000 SHRA BKN007 BKN013CB
PROB30
TEMPO 1406/1407 24030G50KT
PROB30
TEMPO 1406/1421 TSRAGS
TEMPO 1500/1506 4000 SHRA BKN007 BKN013CB
PROB30
TEMPO 1500/1506 1500 TSRAGS
ATIS : +33 3 20 16 19 54
Pas de NOTAMs connus pour ce terrain.
2 SIGMETs publiés pour la FIR Paris (LFFF) :
 
Turbulence forte
LFFF SIGMET 5 VALID 140730/140900 LFPW
LFFF PARIS FIR/UIR SEV TURB OBS AT 0730Z NW OF LINE N4900 W00015 - N5100 E00230 SFC/FL060 STNR WKN=
Orages noyés dans la masse
LFFF SIGMET 4 VALID 140625/140830 LFPW
LFFF PARIS FIR/UIR EMBD TS OBS AT 0625Z WI N5000 W00015 - N5100 E00145 - N5000 E00215 - N4915 W00015 - N5000 W00015 TOP FL280 MOV E 40KT NC=



MET'MAP, la Météo Aéronautique d'un coup d'oeil ! - Copyright ORBIFLY Décembre 2007 - Disclaimer

ORBIFLY MET'MAP TEAM :

Programmation & Développement : Alexandra Zaïnal
Conception & Développement : Baudouin d'Aumeries
Co-Programmation & Développement : Marc-Olivier Méhu
Soutien technique & logistique : Manuel Goepfert

Contact : metmap@orbifly.com




SOURCES & CREDITS :

   NOAA